Terminal Aerodrome Forecast
Issued by NWS Wilmington, OH

Home | Current Version | Previous Version | Text Only | Print | Product List | Glossary On
Versions: 1 2 3 4 5 6 7 8 9 10 11 12 13 14 15 16 17 18 19 20 21
000
FTUS41 KILN 031700
TAFCVG
TAF
KCVG 031726Z 0318/0424 20012KT P6SM SCT060
     FM032300 18005KT P6SM SCT150
     FM041500 21010G18KT P6SM FEW050 SCT100
     FM042200 21010KT P6SM FEW040 BKN150=

USA.gov is the U.S. government's official web portal to all federal, state and local government web resources and services.